sensor_id;sensor_type;location;lat;lon;timestamp;pressure;altitude;pressure_sealevel;temperature;humidity
12452;BME280;72521;48.924;12.204;2024-02-14T00:04:28;97134.84;;;-0.46;87.81
12452;BME280;72521;48.924;12.204;2024-02-14T00:09:33;97134.47;;;-0.31;87.43
12452;BME280;72521;48.924;12.204;2024-02-14T00:14:37;97129.91;;;-0.17;86.96
12452;BME280;72521;48.924;12.204;2024-02-14T00:19:41;97125.69;;;-0.30;86.97
12452;BME280;72521;48.924;12.204;2024-02-14T00:24:47;97129.41;;;-0.26;86.40
12452;BME280;72521;48.924;12.204;2024-02-14T00:29:52;97127.97;;;-0.22;86.07
12452;BME280;72521;48.924;12.204;2024-02-14T00:34:57;97123.28;;;-0.31;85.88
12452;BME280;72521;48.924;12.204;2024-02-14T00:40:03;97124.22;;;-0.26;85.54
12452;BME280;72521;48.924;12.204;2024-02-14T00:45:09;97123.13;;;-0.37;85.52
12452;BME280;72521;48.924;12.204;2024-02-14T00:50:13;97109.50;;;-0.32;85.28
12452;BME280;72521;48.924;12.204;2024-02-14T00:55:19;97112.75;;;-0.55;85.28
12452;BME280;72521;48.924;12.204;2024-02-14T01:00:23;97111.44;;;-0.46;85.08
12452;BME280;72521;48.924;12.204;2024-02-14T01:05:28;97116.66;;;-0.64;85.18
12452;BME280;72521;48.924;12.204;2024-02-14T01:10:33;97119.84;;;-0.62;84.91
12452;BME280;72521;48.924;12.204;2024-02-14T01:15:38;97115.53;;;-0.68;84.98
12452;BME280;72521;48.924;12.204;2024-02-14T01:20:42;97102.03;;;-0.58;84.79
12452;BME280;72521;48.924;12.204;2024-02-14T01:25:47;97111.53;;;-0.70;84.73
12452;BME280;72521;48.924;12.204;2024-02-14T01:30:53;97108.66;;;-0.81;84.73
12452;BME280;72521;48.924;12.204;2024-02-14T01:35:57;97112.69;;;-0.85;84.71
12452;BME280;72521;48.924;12.204;2024-02-14T01:41:03;97104.19;;;-0.73;84.59
12452;BME280;72521;48.924;12.204;2024-02-14T01:46:08;97092.63;;;-0.59;84.43
12452;BME280;72521;48.924;12.204;2024-02-14T01:51:24;97092.13;;;-0.50;84.05
12452;BME280;72521;48.924;12.204;2024-02-14T01:56:30;97089.66;;;-0.45;83.87
12452;BME280;72521;48.924;12.204;2024-02-14T02:01:35;97095.13;;;-0.34;83.69
12452;BME280;72521;48.924;12.204;2024-02-14T02:06:39;97102.56;;;-0.20;83.48
12452;BME280;72521;48.924;12.204;2024-02-14T02:11:48;97110.16;;;-0.07;83.32
12452;BME280;72521;48.924;12.204;2024-02-14T02:17:12;97107.88;;;0.15;83.13
12452;BME280;72521;48.924;12.204;2024-02-14T02:22:36;97093.69;;;0.41;82.76
12452;BME280;72521;48.924;12.204;2024-02-14T02:28:02;97087.00;;;0.33;82.92
12452;BME280;72521;48.924;12.204;2024-02-14T02:33:10;97088.94;;;0.38;82.89
12452;BME280;72521;48.924;12.204;2024-02-14T02:38:15;97091.28;;;0.40;82.88
12452;BME280;72521;48.924;12.204;2024-02-14T02:43:40;97086.56;;;0.36;82.98
12452;BME280;72521;48.924;12.204;2024-02-14T02:49:03;97082.03;;;0.44;82.86
12452;BME280;72521;48.924;12.204;2024-02-14T02:54:08;97082.03;;;0.44;82.84
12452;BME280;72521;48.924;12.204;2024-02-14T02:59:35;97076.81;;;0.32;82.97
12452;BME280;72521;48.924;12.204;2024-02-14T03:04:39;97083.13;;;0.24;83.10
12452;BME280;72521;48.924;12.204;2024-02-14T03:10:14;97094.19;;;0.08;83.41
12452;BME280;72521;48.924;12.204;2024-02-14T03:15:42;97111.28;;;-0.14;83.65
12452;BME280;72521;48.924;12.204;2024-02-14T03:20:51;97115.63;;;-0.26;83.75
12452;BME280;72521;48.924;12.204;2024-02-14T03:25:56;97112.22;;;-0.27;83.73
12452;BME280;72521;48.924;12.204;2024-02-14T03:31:01;97111.78;;;-0.24;83.57
12452;BME280;72521;48.924;12.204;2024-02-14T03:36:05;97107.09;;;-0.15;83.47
12452;BME280;72521;48.924;12.204;2024-02-14T03:41:10;97102.69;;;-0.15;83.49
12452;BME280;72521;48.924;12.204;2024-02-14T03:46:15;97092.75;;;-0.06;83.38
12452;BME280;72521;48.924;12.204;2024-02-14T03:51:20;97102.81;;;-0.10;83.33
12452;BME280;72521;48.924;12.204;2024-02-14T03:56:26;97106.50;;;-0.17;83.35
12452;BME280;72521;48.924;12.204;2024-02-14T04:01:31;97097.41;;;-0.26;83.44
12452;BME280;72521;48.924;12.204;2024-02-14T04:06:35;97100.91;;;-0.32;83.48
12452;BME280;72521;48.924;12.204;2024-02-14T04:11:40;97099.59;;;-0.23;83.35
12452;BME280;72521;48.924;12.204;2024-02-14T04:16:45;96855.47;;;-0.25;83.37
12452;BME280;72521;48.924;12.204;2024-02-14T04:21:49;96851.72;;;-0.17;83.35
12452;BME280;72521;48.924;12.204;2024-02-14T04:26:54;96844.84;;;-0.12;83.31
12452;BME280;72521;48.924;12.204;2024-02-14T04:32:01;96860.31;;;-0.17;83.48
12452;BME280;72521;48.924;12.204;2024-02-14T04:37:05;96858.28;;;-0.26;83.60
12452;BME280;72521;48.924;12.204;2024-02-14T04:42:13;96857.38;;;-0.32;83.71
12452;BME280;72521;48.924;12.204;2024-02-14T04:47:18;96858.84;;;-0.36;83.79
12452;BME280;72521;48.924;12.204;2024-02-14T04:52:23;96860.09;;;-0.39;83.79
12452;BME280;72521;48.924;12.204;2024-02-14T04:57:28;96859.78;;;-0.30;83.67
12452;BME280;72521;48.924;12.204;2024-02-14T05:02:33;96857.72;;;-0.28;83.62
12452;BME280;72521;48.924;12.204;2024-02-14T05:07:37;96861.91;;;-0.27;83.62
12452;BME280;72521;48.924;12.204;2024-02-14T05:12:41;96852.19;;;-0.44;83.77
12452;BME280;72521;48.924;12.204;2024-02-14T05:17:47;96848.66;;;-0.38;83.68
12452;BME280;72521;48.924;12.204;2024-02-14T05:22:52;96846.63;;;-0.35;83.63
12452;BME280;72521;48.924;12.204;2024-02-14T05:27:56;96856.47;;;-0.38;83.60
12452;BME280;72521;48.924;12.204;2024-02-14T05:33:01;96862.00;;;-0.46;83.71
12452;BME280;72521;48.924;12.204;2024-02-14T05:38:06;96858.81;;;-0.48;83.81
12452;BME280;72521;48.924;12.204;2024-02-14T05:43:11;96854.09;;;-0.51;83.88
12452;BME280;72521;48.924;12.204;2024-02-14T05:48:16;96853.97;;;-0.56;83.89
12452;BME280;72521;48.924;12.204;2024-02-14T05:53:20;96853.72;;;-0.66;83.99
12452;BME280;72521;48.924;12.204;2024-02-14T05:58:24;96845.13;;;-0.66;83.95
12452;BME280;72521;48.924;12.204;2024-02-14T06:03:32;96842.78;;;-0.68;83.87
12452;BME280;72521;48.924;12.204;2024-02-14T06:08:36;96852.25;;;-0.73;83.94
12452;BME280;72521;48.924;12.204;2024-02-14T06:13:40;96857.88;;;-0.77;83.86
12452;BME280;72521;48.924;12.204;2024-02-14T06:18:48;96858.91;;;-0.66;83.71
12452;BME280;72521;48.924;12.204;2024-02-14T06:23:52;96853.09;;;-0.50;83.53
12452;BME280;72521;48.924;12.204;2024-02-14T06:28:57;96863.59;;;-0.33;83.33
12452;BME280;72521;48.924;12.204;2024-02-14T06:34:02;96874.59;;;-0.19;83.17
12452;BME280;72521;48.924;12.204;2024-02-14T06:39:07;96877.63;;;-0.22;83.22
12452;BME280;72521;48.924;12.204;2024-02-14T06:44:12;96892.22;;;-0.21;83.27
12452;BME280;72521;48.924;12.204;2024-02-14T06:49:17;96904.44;;;-0.10;83.15
12452;BME280;72521;48.924;12.204;2024-02-14T06:54:22;96903.97;;;-0.07;83.10
12452;BME280;72521;48.924;12.204;2024-02-14T06:59:26;96897.97;;;0.16;82.80
12452;BME280;72521;48.924;12.204;2024-02-14T07:04:31;96895.25;;;0.11;82.93
12452;BME280;72521;48.924;12.204;2024-02-14T07:09:36;96893.22;;;0.36;82.70
12452;BME280;72521;48.924;12.204;2024-02-14T07:14:41;96886.75;;;0.38;82.67
12452;BME280;72521;48.924;12.204;2024-02-14T07:19:47;96884.41;;;0.37;82.69
12452;BME280;72521;48.924;12.204;2024-02-14T07:24:52;96877.59;;;0.36;82.71
12452;BME280;72521;48.924;12.204;2024-02-14T07:29:57;96886.63;;;0.45;82.66
12452;BME280;72521;48.924;12.204;2024-02-14T07:35:05;96882.00;;;0.47;82.71
12452;BME280;72521;48.924;12.204;2024-02-14T07:40:11;96894.66;;;0.55;82.68
12452;BME280;72521;48.924;12.204;2024-02-14T07:45:33;96904.59;;;0.58;82.69
12452;BME280;72521;48.924;12.204;2024-02-14T07:50:39;96905.78;;;0.79;82.57
12452;BME280;72521;48.924;12.204;2024-02-14T07:55:43;96889.69;;;0.94;82.45
12452;BME280;72521;48.924;12.204;2024-02-14T08:00:47;96909.44;;;1.06;82.47
12452;BME280;72521;48.924;12.204;2024-02-14T08:05:53;96910.59;;;0.99;82.65
12452;BME280;72521;48.924;12.204;2024-02-14T08:10:58;96911.03;;;1.07;82.62
12452;BME280;72521;48.924;12.204;2024-02-14T08:16:02;96910.31;;;1.40;82.47
12452;BME280;72521;48.924;12.204;2024-02-14T08:21:07;96894.84;;;1.51;82.33
12452;BME280;72521;48.924;12.204;2024-02-14T08:26:12;96897.31;;;1.57;82.51
12452;BME280;72521;48.924;12.204;2024-02-14T08:31:17;96889.81;;;1.61;82.62
12452;BME280;72521;48.924;12.204;2024-02-14T08:36:22;96889.81;;;1.61;82.85
12452;BME280;72521;48.924;12.204;2024-02-14T08:41:26;96871.00;;;1.75;82.74
12452;BME280;72521;48.924;12.204;2024-02-14T08:46:31;96871.00;;;1.75;82.86
12452;BME280;72521;48.924;12.204;2024-02-14T08:51:36;96865.72;;;1.70;83.19
12452;BME280;72521;48.924;12.204;2024-02-14T08:56:40;96881.19;;;1.60;83.41
12452;BME280;72521;48.924;12.204;2024-02-14T09:01:45;96873.69;;;1.97;83.01
12452;BME280;72521;48.924;12.204;2024-02-14T09:06:51;96858.59;;;2.38;82.70
12452;BME280;72521;48.924;12.204;2024-02-14T09:11:55;96866.13;;;2.56;82.99
12452;BME280;72521;48.924;12.204;2024-02-14T09:16:59;96881.03;;;2.39;83.17
12452;BME280;72521;48.924;12.204;2024-02-14T09:22:05;96883.06;;;2.53;83.10
12452;BME280;72521;48.924;12.204;2024-02-14T09:27:09;96874.66;;;2.95;82.82
12452;BME280;72521;48.924;12.204;2024-02-14T09:32:17;96876.34;;;3.06;83.08
12452;BME280;72521;48.924;12.204;2024-02-14T09:37:22;96862.63;;;3.85;82.46
12452;BME280;72521;48.924;12.204;2024-02-14T09:42:34;96861.09;;;3.84;82.98
12452;BME280;72521;48.924;12.204;2024-02-14T09:47:42;96856.81;;;3.72;83.57
12452;BME280;72521;48.924;12.204;2024-02-14T09:52:48;96858.97;;;3.81;83.71
12452;BME280;72521;48.924;12.204;2024-02-14T09:57:53;96872.47;;;3.67;84.05
12452;BME280;72521;48.924;12.204;2024-02-14T10:02:58;96877.63;;;3.94;83.90
12452;BME280;72521;48.924;12.204;2024-02-14T10:08:04;96868.72;;;4.32;83.99
12452;BME280;72521;48.924;12.204;2024-02-14T10:13:09;96876.16;;;4.08;84.76
12452;BME280;72521;48.924;12.204;2024-02-14T10:18:14;96870.22;;;4.18;84.87
12452;BME280;72521;48.924;12.204;2024-02-14T10:23:20;96862.69;;;4.32;84.78
12452;BME280;72521;48.924;12.204;2024-02-14T10:28:25;96866.13;;;4.37;84.88
12452;BME280;72521;48.924;12.204;2024-02-14T10:33:38;96861.53;;;4.60;85.01
12452;BME280;72521;48.924;12.204;2024-02-14T10:38:44;96851.38;;;4.83;85.22
12452;BME280;72521;48.924;12.204;2024-02-14T10:43:51;96857.44;;;4.89;85.49
12452;BME280;72521;48.924;12.204;2024-02-14T10:49:01;96876.25;;;4.76;85.92
12452;BME280;72521;48.924;12.204;2024-02-14T10:54:11;96864.47;;;4.83;86.08
12452;BME280;72521;48.924;12.204;2024-02-14T10:59:18;96871.00;;;4.71;86.43
12452;BME280;72521;48.924;12.204;2024-02-14T11:04:23;96870.47;;;4.74;86.62
12452;BME280;72521;48.924;12.204;2024-02-14T11:09:33;96860.94;;;5.35;85.93
12452;BME280;72521;48.924;12.204;2024-02-14T11:14:42;96849.69;;;5.45;86.33
12452;BME280;72521;48.924;12.204;2024-02-14T11:19:48;96861.97;;;5.09;86.82
12452;BME280;72521;48.924;12.204;2024-02-14T11:24:53;96849.28;;;4.85;86.94
12452;BME280;72521;48.924;12.204;2024-02-14T11:30:06;96851.91;;;4.80;86.89
12452;BME280;72521;48.924;12.204;2024-02-14T11:35:12;96851.91;;;4.85;86.92
12452;BME280;72521;48.924;12.204;2024-02-14T11:40:19;96831.75;;;5.01;86.82
12452;BME280;72521;48.924;12.204;2024-02-14T11:45:24;96835.75;;;5.19;86.83
12452;BME280;72521;48.924;12.204;2024-02-14T11:50:28;96827.13;;;5.64;86.28
12452;BME280;72521;48.924;12.204;2024-02-14T11:55:36;96832.09;;;5.76;86.48
12452;BME280;72521;48.924;12.204;2024-02-14T12:00:41;96825.81;;;5.67;86.76
12452;BME280;72521;48.924;12.204;2024-02-14T12:05:47;96835.50;;;5.71;87.06
12452;BME280;72521;48.924;12.204;2024-02-14T12:10:54;96828.44;;;5.62;87.30
12452;BME280;72521;48.924;12.204;2024-02-14T12:15:59;96824.75;;;5.52;87.58
12452;BME280;72521;48.924;12.204;2024-02-14T12:21:07;96832.63;;;5.37;87.70
12452;BME280;72521;48.924;12.204;2024-02-14T12:26:12;96838.91;;;5.36;87.61
12452;BME280;72521;48.924;12.204;2024-02-14T12:31:23;96835.75;;;5.29;87.60
12452;BME280;72521;48.924;12.204;2024-02-14T12:36:28;96831.56;;;5.43;87.27
12452;BME280;72521;48.924;12.204;2024-02-14T12:41:33;96837.88;;;5.52;87.09
12452;BME280;72521;48.924;12.204;2024-02-14T12:46:40;96838.91;;;5.62;86.96
12452;BME280;72521;48.924;12.204;2024-02-14T12:51:43;96828.16;;;5.88;86.63
12452;BME280;72521;48.924;12.204;2024-02-14T12:56:48;96812.66;;;5.97;86.61
12452;BME280;72521;48.924;12.204;2024-02-14T13:01:53;96772.28;;;6.62;86.00
12452;BME280;72521;48.924;12.204;2024-02-14T13:06:57;96743.63;;;7.92;85.22
12452;BME280;72521;48.924;12.204;2024-02-14T13:12:03;96715.69;;;9.46;85.26
12452;BME280;72521;48.924;12.204;2024-02-14T13:17:10;96696.66;;;9.76;86.16
12452;BME280;72521;48.924;12.204;2024-02-14T13:22:14;96702.88;;;9.53;88.27
12452;BME280;72521;48.924;12.204;2024-02-14T13:27:20;96711.34;;;9.68;90.00
12452;BME280;72521;48.924;12.204;2024-02-14T13:32:27;96757.59;;;9.01;92.95
12452;BME280;72521;48.924;12.204;2024-02-14T13:37:33;96785.13;;;8.52;94.98
12452;BME280;72521;48.924;12.204;2024-02-14T13:42:39;96786.16;;;8.94;95.07
12452;BME280;72521;48.924;12.204;2024-02-14T13:47:43;96788.88;;;9.26;96.14
12452;BME280;72521;48.924;12.204;2024-02-14T13:52:50;96806.97;;;8.34;99.46
12452;BME280;72521;48.924;12.204;2024-02-14T13:57:58;96816.84;;;8.18;100.00
12452;BME280;72521;48.924;12.204;2024-02-14T14:03:03;96801.50;;;8.49;100.00
12452;BME280;72521;48.924;12.204;2024-02-14T14:08:07;96775.41;;;10.48;99.40
12452;BME280;72521;48.924;12.204;2024-02-14T14:13:12;96812.13;;;9.24;100.00
12452;BME280;72521;48.924;12.204;2024-02-14T14:18:17;96848.88;;;8.02;100.00
12452;BME280;72521;48.924;12.204;2024-02-14T14:23:21;96873.69;;;7.28;100.00
12452;BME280;72521;48.924;12.204;2024-02-14T14:28:26;96873.63;;;7.38;100.00
12452;BME280;72521;48.924;12.204;2024-02-14T14:33:30;96876.84;;;7.25;100.00
12452;BME280;72521;48.924;12.204;2024-02-14T14:38:35;96880.69;;;6.93;100.00
12452;BME280;72521;48.924;12.204;2024-02-14T14:43:40;96878.31;;;6.97;100.00
12452;BME280;72521;48.924;12.204;2024-02-14T14:48:45;96881.72;;;6.97;100.00
12452;BME280;72521;48.924;12.204;2024-02-14T14:53:49;96888.25;;;7.05;100.00
12452;BME280;72521;48.924;12.204;2024-02-14T14:58:58;96886.19;;;6.97;100.00
12452;BME280;72521;48.924;12.204;2024-02-14T15:04:05;96892.25;;;6.97;100.00
12452;BME280;72521;48.924;12.204;2024-02-14T15:09:10;96901.22;;;6.86;100.00
12452;BME280;72521;48.924;12.204;2024-02-14T15:14:15;96908.41;;;6.65;100.00
12452;BME280;72521;48.924;12.204;2024-02-14T15:19:20;96924.50;;;6.44;100.00
12452;BME280;72521;48.924;12.204;2024-02-14T15:24:26;96917.66;;;6.43;100.00
12452;BME280;72521;48.924;12.204;2024-02-14T15:29:32;96906.38;;;6.32;100.00
12452;BME280;72521;48.924;12.204;2024-02-14T15:34:53;96908.22;;;6.21;100.00
12452;BME280;72521;48.924;12.204;2024-02-14T15:39:58;96917.19;;;6.05;100.00
12452;BME280;72521;48.924;12.204;2024-02-14T15:45:04;96915.06;;;6.02;99.63
12452;BME280;72521;48.924;12.204;2024-02-14T15:50:10;96905.88;;;6.00;98.57
12452;BME280;72521;48.924;12.204;2024-02-14T15:55:14;96910.34;;;5.99;97.68
12452;BME280;72521;48.924;12.204;2024-02-14T16:00:21;96900.09;;;5.97;96.84
12452;BME280;72521;48.924;12.204;2024-02-14T16:05:29;96897.22;;;5.89;96.21
12452;BME280;72521;48.924;12.204;2024-02-14T16:10:34;96890.88;;;5.80;95.54
12452;BME280;72521;48.924;12.204;2024-02-14T16:15:41;96890.38;;;5.73;94.99
12452;BME280;72521;48.924;12.204;2024-02-14T16:20:45;96883.53;;;5.62;94.51
12452;BME280;72521;48.924;12.204;2024-02-14T16:25:50;96886.94;;;5.67;93.74
12452;BME280;72521;48.924;12.204;2024-02-14T16:30:57;96894.03;;;5.67;93.08
12452;BME280;72521;48.924;12.204;2024-02-14T16:36:02;96909.00;;;5.71;92.37
12452;BME280;72521;48.924;12.204;2024-02-14T16:41:06;96920.28;;;5.72;91.83
12452;BME280;72521;48.924;12.204;2024-02-14T16:46:12;96922.91;;;5.67;91.41
12452;BME280;72521;48.924;12.204;2024-02-14T16:51:19;96908.19;;;5.60;91.01
12452;BME280;72521;48.924;12.204;2024-02-14T16:56:23;96909.00;;;5.56;90.66
12452;BME280;72521;48.924;12.204;2024-02-14T17:01:30;96917.91;;;5.55;90.29
12452;BME280;72521;48.924;12.204;2024-02-14T17:06:34;96915.53;;;5.53;89.87
12452;BME280;72521;48.924;12.204;2024-02-14T17:11:41;96912.63;;;5.50;89.62
12452;BME280;72521;48.924;12.204;2024-02-14T17:16:47;96910.81;;;5.45;89.35
12452;BME280;72521;48.924;12.204;2024-02-14T17:21:52;96905.28;;;5.37;89.18
12452;BME280;72521;48.924;12.204;2024-02-14T17:26:56;96894.25;;;5.35;88.96
12452;BME280;72521;48.924;12.204;2024-02-14T17:32:02;96895.03;;;5.35;88.74
12452;BME280;72521;48.924;12.204;2024-02-14T17:37:06;96903.72;;;5.36;88.57
12452;BME280;72521;48.924;12.204;2024-02-14T17:42:10;96903.97;;;5.39;88.37
12452;BME280;72521;48.924;12.204;2024-02-14T17:47:16;96907.63;;;5.38;88.25
12452;BME280;72521;48.924;12.204;2024-02-14T17:52:20;96912.63;;;5.40;88.04
12452;BME280;72521;48.924;12.204;2024-02-14T17:57:25;96911.56;;;5.36;87.91
12452;BME280;72521;48.924;12.204;2024-02-14T18:02:31;96909.75;;;5.36;87.79
12452;BME280;72521;48.924;12.204;2024-02-14T18:07:36;96910.00;;;5.40;87.63
12452;BME280;72521;48.924;12.204;2024-02-14T18:12:40;96901.06;;;5.41;87.49
12452;BME280;72521;48.924;12.204;2024-02-14T18:17:45;96901.63;;;5.38;87.44
12452;BME280;72521;48.924;12.204;2024-02-14T18:22:51;96895.84;;;5.41;87.33
12452;BME280;72521;48.924;12.204;2024-02-14T18:27:55;96898.72;;;5.39;87.27
12452;BME280;72521;48.924;12.204;2024-02-14T18:33:01;96900.56;;;5.44;87.13
12452;BME280;72521;48.924;12.204;2024-02-14T18:38:06;96899.78;;;5.43;87.11
12452;BME280;72521;48.924;12.204;2024-02-14T18:43:12;96906.31;;;5.41;87.07
12452;BME280;72521;48.924;12.204;2024-02-14T18:48:17;96897.41;;;5.42;86.96
12452;BME280;72521;48.924;12.204;2024-02-14T18:53:21;96902.66;;;5.42;86.92
12452;BME280;72521;48.924;12.204;2024-02-14T18:58:26;96890.84;;;5.39;86.90
12452;BME280;72521;48.924;12.204;2024-02-14T19:03:32;96885.88;;;5.38;86.85
12452;BME280;72521;48.924;12.204;2024-02-14T19:08:36;96888.75;;;5.41;86.85
12452;BME280;72521;48.924;12.204;2024-02-14T19:13:40;96885.59;;;5.34;86.85
12452;BME280;72521;48.924;12.204;2024-02-14T19:18:46;96885.84;;;5.28;86.79
12452;BME280;72521;48.924;12.204;2024-02-14T19:23:50;96886.91;;;5.32;86.59
12452;BME280;72521;48.924;12.204;2024-02-14T19:28:54;96881.41;;;5.28;86.62
12452;BME280;72521;48.924;12.204;2024-02-14T19:34:00;96884.00;;;5.23;86.49
12452;BME280;72521;48.924;12.204;2024-02-14T19:39:06;96874.81;;;5.31;86.09
12452;BME280;72521;48.924;12.204;2024-02-14T19:44:12;96882.44;;;5.32;85.99
12452;BME280;72521;48.924;12.204;2024-02-14T19:49:19;96869.59;;;5.31;85.95
12452;BME280;72521;48.924;12.204;2024-02-14T19:54:26;96875.09;;;5.19;86.04
12452;BME280;72521;48.924;12.204;2024-02-14T19:59:32;96866.44;;;5.18;85.95
12452;BME280;72521;48.924;12.204;2024-02-14T20:04:39;96864.06;;;5.17;85.87
12452;BME280;72521;48.924;12.204;2024-02-14T20:09:44;96862.50;;;5.16;85.75
12452;BME280;72521;48.924;12.204;2024-02-14T20:14:49;96863.78;;;5.13;85.69
12452;BME280;72521;48.924;12.204;2024-02-14T20:19:55;96871.38;;;5.05;85.71
12452;BME280;72521;48.924;12.204;2024-02-14T20:25:00;96870.88;;;5.08;85.66
12452;BME280;72521;48.924;12.204;2024-02-14T20:30:07;96877.91;;;5.02;85.87
12452;BME280;72521;48.924;12.204;2024-02-14T20:35:17;96871.88;;;5.02;85.77
12452;BME280;72521;48.924;12.204;2024-02-14T20:40:22;96861.38;;;5.02;85.67
12452;BME280;72521;48.924;12.204;2024-02-14T20:45:27;96859.34;;;5.14;85.46
12452;BME280;72521;48.924;12.204;2024-02-14T20:50:33;96866.13;;;5.10;85.40
12452;BME280;72521;48.924;12.204;2024-02-14T20:55:38;96861.69;;;5.05;85.40
12452;BME280;72521;48.924;12.204;2024-02-14T21:00:42;96857.47;;;5.04;85.35
12452;BME280;72521;48.924;12.204;2024-02-14T21:05:48;96852.50;;;5.13;85.15
12452;BME280;72521;48.924;12.204;2024-02-14T21:10:52;96856.72;;;5.09;85.21
12452;BME280;72521;48.924;12.204;2024-02-14T21:15:56;96865.09;;;5.06;85.20
12452;BME280;72521;48.924;12.204;2024-02-14T21:21:02;96869.28;;;5.07;85.19
12452;BME280;72521;48.924;12.204;2024-02-14T21:26:07;96860.38;;;5.08;85.12
12452;BME280;72521;48.924;12.204;2024-02-14T21:31:11;96859.31;;;5.04;85.09
12452;BME280;72521;48.924;12.204;2024-02-14T21:36:21;96860.09;;;4.99;85.08
12452;BME280;72521;48.924;12.204;2024-02-14T21:41:25;96861.94;;;4.99;85.05
12452;BME280;72521;48.924;12.204;2024-02-14T21:46:29;96859.81;;;4.96;85.02
12452;BME280;72521;48.924;12.204;2024-02-14T21:51:35;96844.38;;;4.99;84.90
12452;BME280;72521;48.924;12.204;2024-02-14T21:56:40;96840.97;;;4.99;84.87
12452;BME280;72521;48.924;12.204;2024-02-14T22:01:44;96845.94;;;5.05;84.71
12452;BME280;72521;48.924;12.204;2024-02-14T22:06:50;96858.00;;;5.11;84.62
12452;BME280;72521;48.924;12.204;2024-02-14T22:11:54;96866.41;;;5.13;84.58
12452;BME280;72521;48.924;12.204;2024-02-14T22:16:59;96871.38;;;5.10;84.58
12452;BME280;72521;48.924;12.204;2024-02-14T22:22:05;96875.81;;;5.04;84.63
12452;BME280;72521;48.924;12.204;2024-02-14T22:27:09;96874.53;;;5.07;84.55
12452;BME280;72521;48.924;12.204;2024-02-14T22:32:13;96873.75;;;5.06;84.51
12452;BME280;72521;48.924;12.204;2024-02-14T22:37:18;96868.25;;;5.08;84.42
12452;BME280;72521;48.924;12.204;2024-02-14T22:42:22;96876.06;;;5.03;84.41
12452;BME280;72521;48.924;12.204;2024-02-14T22:47:26;96868.47;;;5.01;84.30
12452;BME280;72521;48.924;12.204;2024-02-14T22:52:34;96861.41;;;5.07;84.12
12452;BME280;72521;48.924;12.204;2024-02-14T22:57:39;96866.66;;;5.07;84.03
12452;BME280;72521;48.924;12.204;2024-02-14T23:02:43;96870.59;;;4.99;84.03
12452;BME280;72521;48.924;12.204;2024-02-14T23:07:48;96870.28;;;5.01;83.90
12452;BME280;72521;48.924;12.204;2024-02-14T23:12:53;96874.50;;;4.97;83.86
12452;BME280;72521;48.924;12.204;2024-02-14T23:17:57;96858.78;;;4.97;83.77
12452;BME280;72521;48.924;12.204;2024-02-14T23:23:02;96900.47;;;5.03;83.55
12452;BME280;72521;48.924;12.204;2024-02-14T23:28:07;96907.53;;;5.03;83.50
12452;BME280;72521;48.924;12.204;2024-02-14T23:33:11;96908.56;;;4.97;83.49
12452;BME280;72521;48.924;12.204;2024-02-14T23:38:17;96916.69;;;4.95;83.47
12452;BME280;72521;48.924;12.204;2024-02-14T23:43:21;96919.84;;;4.97;83.36
12452;BME280;72521;48.924;12.204;2024-02-14T23:48:26;96923.00;;;4.99;83.28
12452;BME280;72521;48.924;12.204;2024-02-14T23:53:32;96921.69;;;4.97;83.26
12452;BME280;72521;48.924;12.204;2024-02-14T23:58:36;96914.31;;;4.94;83.23
